Abee, Canada
Current Conditions -  °F | °C
As of 9:00 PM on Wednesday 28 Jan 2015 (Local Time) from CYED Reporting Station
Broken Clouds Broken Clouds  
Wind Chill: 18°   Ceiling: 2800
Heat Index: 18°   Visibility: 12mi
Dew Point: 14°   Wind: 2mph
Humidity: 86%   Direction: 160°SSE
Pressure: 30.36"   Gusts: NA
Location:  54.23°N, 113.02°W
Report Text: CYED 290400Z 16002KT 12SM SCT006 BKN028 M08/M10 A3036 RMKSF4SC1 DA-513FT SLP326
Loading
Personal Weather Stations






























Interactive Weather Map New forecast layout! Learn more

10-Day Weather Forecast

Advertisements
Track Severe Weather on mobile